createdAt,value
2022-10-06T00:02:24.617Z,11.83
2022-10-06T00:04:51.380Z,11.80
2022-10-06T00:07:18.307Z,11.78
2022-10-06T00:09:45.238Z,11.78
2022-10-06T00:12:12.071Z,11.80
2022-10-06T00:14:38.882Z,11.80
2022-10-06T00:17:05.604Z,11.80
2022-10-06T00:19:32.346Z,11.80
2022-10-06T00:21:59.141Z,11.78
2022-10-06T00:24:25.946Z,11.76
2022-10-06T00:26:52.894Z,11.77
2022-10-06T00:29:19.652Z,11.76
2022-10-06T00:31:46.447Z,11.75
2022-10-06T00:34:13.318Z,11.71
2022-10-06T00:36:40.227Z,11.70
2022-10-06T00:39:06.990Z,11.64
2022-10-06T00:41:33.982Z,11.59
2022-10-06T00:44:01.903Z,11.56
2022-10-06T00:46:40.573Z,11.51
2022-10-06T00:49:13.357Z,11.45
2022-10-06T00:51:46.097Z,11.44
2022-10-06T00:54:13.111Z,11.40
2022-10-06T00:56:40.839Z,11.37
2022-10-06T00:59:16.246Z,11.35
2022-10-06T01:01:49.909Z,11.31
2022-10-06T01:04:17.934Z,11.29
2022-10-06T01:06:51.914Z,11.25
2022-10-06T01:09:19.855Z,11.20
2022-10-06T01:11:50.172Z,11.18
2022-10-06T01:14:19.927Z,11.16
2022-10-06T01:16:53.378Z,11.14
2022-10-06T01:20:00.284Z,11.12
2022-10-06T01:22:33.179Z,11.09
2022-10-06T01:25:00.296Z,11.06
2022-10-06T01:27:30.641Z,11.03
2022-10-06T01:29:58.814Z,10.97
2022-10-06T01:32:32.359Z,10.96
2022-10-06T01:34:59.130Z,10.94
2022-10-06T01:37:26.080Z,10.93
2022-10-06T01:39:52.872Z,10.88
2022-10-06T01:42:19.593Z,10.84
2022-10-06T01:44:46.315Z,10.82
2022-10-06T01:47:13.122Z,10.78
2022-10-06T01:49:40.421Z,10.75
2022-10-06T01:52:07.445Z,10.71
2022-10-06T01:54:34.272Z,10.67
2022-10-06T01:57:01.571Z,10.63
2022-10-06T01:59:28.374Z,10.59
2022-10-06T02:01:55.131Z,10.56
2022-10-06T02:04:22.232Z,10.54
2022-10-06T02:06:49.063Z,10.51
2022-10-06T02:09:15.887Z,10.46
2022-10-06T02:11:42.587Z,10.43
2022-10-06T02:14:09.410Z,10.39
2022-10-06T02:16:36.323Z,10.35
2022-10-06T02:19:03.091Z,10.35
2022-10-06T02:21:29.942Z,10.33
2022-10-06T02:23:57.246Z,10.29
2022-10-06T02:26:24.170Z,10.25
2022-10-06T02:28:51.000Z,10.21
2022-10-06T02:31:18.047Z,10.17
2022-10-06T02:33:44.948Z,10.13
2022-10-06T02:36:16.888Z,10.10
2022-10-06T02:38:44.281Z,10.06
2022-10-06T02:41:11.359Z,10.05
2022-10-06T02:43:38.443Z,10.02
2022-10-06T02:46:08.258Z,9.98
2022-10-06T02:48:35.456Z,9.96
2022-10-06T02:51:15.735Z,9.94
2022-10-06T02:53:44.294Z,9.90
2022-10-06T02:56:16.132Z,9.87
2022-10-06T02:58:44.483Z,9.84
2022-10-06T03:01:16.999Z,9.83
2022-10-06T03:03:44.857Z,9.82
2022-10-06T03:06:22.388Z,9.77
2022-10-06T03:08:49.424Z,9.74
2022-10-06T03:11:16.815Z,9.71
2022-10-06T03:13:43.596Z,9.69
2022-10-06T03:16:18.021Z,9.65
2022-10-06T03:18:46.203Z,9.60
2022-10-06T03:21:15.281Z,9.58
2022-10-06T03:23:46.664Z,9.56
2022-10-06T03:26:15.415Z,9.55
2022-10-06T03:28:42.482Z,9.53
2022-10-06T03:31:09.330Z,9.51
2022-10-06T03:33:36.491Z,9.47
2022-10-06T03:36:09.908Z,9.44
2022-10-06T03:38:37.335Z,9.42
2022-10-06T03:41:06.861Z,9.38
2022-10-06T03:43:35.028Z,9.37
2022-10-06T03:46:03.164Z,9.34
2022-10-06T03:48:31.820Z,9.34
2022-10-06T03:51:01.495Z,9.32
2022-10-06T03:53:29.758Z,9.30
2022-10-06T03:56:04.359Z,9.29
2022-10-06T03:58:33.202Z,9.26
2022-10-06T04:01:13.106Z,9.26
2022-10-06T04:03:40.429Z,9.25
2022-10-06T04:06:12.296Z,9.22
2022-10-06T04:08:40.927Z,9.20
2022-10-06T04:11:11.330Z,9.18
2022-10-06T04:13:39.380Z,9.15
2022-10-06T04:16:16.792Z,9.15
2022-10-06T04:18:45.290Z,9.13
2022-10-06T04:21:13.221Z,9.12
2022-10-06T04:23:40.255Z,9.10
2022-10-06T04:26:18.429Z,9.08
2022-10-06T04:28:46.424Z,9.08
2022-10-06T04:31:16.130Z,9.06
2022-10-06T04:33:44.513Z,9.04
2022-10-06T04:36:15.657Z,9.03
2022-10-06T04:38:43.207Z,9.03
2022-10-06T04:41:18.455Z,9.03
2022-10-06T04:43:48.858Z,9.02
2022-10-06T04:46:41.611Z,8.97
2022-10-06T04:49:04.614Z,8.96
2022-10-06T04:51:31.529Z,8.96
2022-10-06T04:53:58.371Z,8.94
2022-10-06T04:56:31.338Z,8.90
2022-10-06T04:58:58.811Z,8.88
2022-10-06T05:01:31.498Z,8.87
2022-10-06T05:04:00.084Z,8.87
2022-10-06T05:06:35.727Z,8.86
2022-10-06T05:09:08.672Z,8.80
2022-10-06T05:11:35.694Z,8.79
2022-10-06T05:14:02.481Z,8.77
2022-10-06T05:16:31.077Z,8.75
2022-10-06T05:18:59.051Z,8.74
2022-10-06T05:21:30.936Z,8.73
2022-10-06T05:23:57.838Z,8.70
2022-10-06T05:26:27.264Z,8.69
2022-10-06T05:28:53.996Z,8.67
2022-10-06T05:31:22.304Z,8.63
2022-10-06T05:33:49.117Z,8.62
2022-10-06T05:36:21.318Z,8.59
2022-10-06T05:38:48.900Z,8.58
2022-10-06T05:41:20.038Z,8.54
2022-10-06T05:43:47.981Z,8.52
2022-10-06T05:46:20.314Z,8.50
2022-10-06T05:48:49.346Z,8.51
2022-10-06T05:51:18.083Z,8.51
2022-10-06T05:53:45.254Z,8.50
2022-10-06T05:56:26.952Z,8.49
2022-10-06T05:58:55.613Z,8.49
2022-10-06T06:01:28.420Z,8.49
2022-10-06T06:04:03.504Z,8.50
2022-10-06T06:06:33.085Z,8.51
2022-10-06T06:09:03.397Z,8.51
2022-10-06T06:11:31.580Z,8.53
2022-10-06T06:14:09.895Z,8.55
2022-10-06T06:16:39.129Z,8.57
2022-10-06T06:19:09.475Z,8.59
2022-10-06T06:21:36.283Z,8.61
2022-10-06T06:24:04.334Z,8.63
2022-10-06T06:26:33.537Z,8.68
2022-10-06T06:29:04.448Z,8.73
2022-10-06T06:31:32.360Z,8.75
2022-10-06T06:34:01.534Z,8.80
2022-10-06T06:36:35.952Z,8.83
2022-10-06T06:39:08.453Z,8.89
2022-10-06T06:41:40.617Z,8.96
2022-10-06T06:44:09.463Z,9.00
2022-10-06T06:49:08.168Z,9.15
2022-10-06T06:51:38.170Z,9.23
2022-10-06T06:54:05.417Z,9.28
2022-10-06T06:56:37.200Z,9.36
2022-10-06T06:59:10.924Z,9.43
2022-10-06T07:01:47.177Z,9.53
2022-10-06T07:04:16.397Z,9.62
2022-10-06T07:06:47.761Z,9.72
2022-10-06T07:09:14.701Z,9.83
2022-10-06T07:11:41.510Z,9.90
2022-10-06T07:14:12.788Z,10.03
2022-10-06T07:16:58.523Z,10.14
2022-10-06T07:19:44.447Z,10.24
2022-10-06T07:22:30.233Z,10.34
2022-10-06T07:25:07.754Z,10.46
2022-10-06T07:27:46.340Z,10.56
2022-10-06T07:30:19.529Z,10.65
2022-10-06T07:32:47.957Z,10.76
2022-10-06T07:35:16.790Z,10.84
2022-10-06T07:37:44.067Z,10.91
2022-10-06T07:40:11.545Z,11.03
2022-10-06T07:42:58.698Z,11.12
2022-10-06T07:45:41.519Z,11.20
2022-10-06T07:48:14.852Z,11.27
2022-10-06T07:50:43.441Z,11.32
2022-10-06T07:53:10.256Z,11.36
2022-10-06T07:55:41.848Z,11.45
2022-10-06T07:58:19.908Z,11.51
2022-10-06T08:00:48.997Z,11.52
2022-10-06T08:03:18.453Z,11.57
2022-10-06T08:05:47.500Z,11.59
2022-10-06T08:08:15.309Z,11.61
2022-10-06T08:10:43.571Z,11.61
2022-10-06T08:13:10.802Z,11.60
2022-10-06T08:15:37.802Z,11.63
2022-10-06T08:18:12.397Z,11.64
2022-10-06T08:20:48.726Z,11.66
2022-10-06T08:23:16.829Z,11.67
2022-10-06T08:25:50.411Z,11.73
2022-10-06T08:28:18.647Z,11.76
2022-10-06T08:30:45.600Z,11.78
2022-10-06T08:33:12.856Z,11.81
2022-10-06T08:35:40.048Z,11.84
2022-10-06T08:38:06.982Z,11.87
2022-10-06T08:40:34.599Z,11.91
2022-10-06T08:43:02.914Z,11.94
2022-10-06T08:45:40.483Z,11.97
2022-10-06T08:48:27.024Z,12.02
2022-10-06T08:51:08.763Z,12.07
2022-10-06T08:53:35.991Z,12.13
2022-10-06T08:56:18.369Z,12.17
2022-10-06T08:58:58.475Z,12.18
2022-10-06T09:01:29.312Z,12.22
2022-10-06T09:04:02.192Z,12.29
2022-10-06T09:06:41.079Z,12.34
2022-10-06T09:09:16.197Z,12.37
2022-10-06T09:11:53.868Z,12.44
2022-10-06T09:14:48.188Z,12.47
2022-10-06T09:17:33.355Z,12.51
2022-10-06T09:20:09.650Z,12.55
2022-10-06T09:22:37.906Z,12.59
2022-10-06T09:25:22.960Z,12.67
2022-10-06T09:27:55.593Z,12.74
2022-10-06T09:30:24.204Z,12.84
2022-10-06T09:33:02.917Z,12.96
2022-10-06T09:35:32.113Z,13.06
2022-10-06T09:38:08.788Z,13.12
2022-10-06T09:40:51.404Z,13.23
2022-10-06T09:43:25.846Z,13.31
2022-10-06T09:45:55.638Z,13.37
2022-10-06T09:48:25.437Z,13.45
2022-10-06T09:51:17.859Z,13.52
2022-10-06T09:54:10.600Z,13.60
2022-10-06T09:56:42.510Z,13.68
2022-10-06T09:59:22.060Z,13.79
2022-10-06T10:01:53.926Z,13.68
2022-10-06T10:04:41.464Z,13.77
2022-10-06T10:07:24.430Z,13.81
2022-10-06T10:09:53.155Z,13.79
2022-10-06T10:12:30.183Z,13.92
2022-10-06T10:15:20.178Z,13.99
2022-10-06T10:18:03.324Z,13.98
2022-10-06T10:20:37.754Z,14.10
2022-10-06T10:23:19.137Z,14.17
2022-10-06T10:26:15.498Z,14.05
2022-10-06T10:28:50.984Z,14.28
2022-10-06T10:31:33.239Z,14.32
2022-10-06T10:34:31.547Z,14.39
2022-10-06T10:37:14.715Z,14.64
2022-10-06T10:39:48.508Z,14.90
2022-10-06T10:42:24.924Z,14.99
2022-10-06T10:45:00.421Z,15.30
2022-10-06T10:47:31.985Z,15.67
2022-10-06T10:50:07.751Z,15.92
2022-10-06T10:52:41.794Z,16.08
2022-10-06T10:55:34.597Z,16.06
2022-10-06T10:58:13.726Z,16.13
2022-10-06T11:00:44.617Z,16.07
2022-10-06T11:03:11.914Z,16.32
2022-10-06T11:05:47.728Z,16.66
2022-10-06T11:08:38.588Z,16.71
2022-10-06T11:11:16.227Z,16.58
2022-10-06T11:13:48.398Z,16.22
2022-10-06T11:16:45.175Z,15.72
2022-10-06T11:19:28.963Z,15.36
2022-10-06T11:21:59.580Z,15.26
2022-10-06T11:24:45.351Z,15.70
2022-10-06T11:27:39.385Z,16.14
2022-10-06T11:30:15.341Z,16.41
2022-10-06T11:33:01.791Z,16.60
2022-10-06T11:35:41.979Z,16.83
2022-10-06T11:38:23.979Z,16.93
2022-10-06T11:41:16.961Z,17.00
2022-10-06T11:44:00.678Z,17.00
2022-10-06T11:47:06.478Z,17.12
2022-10-06T11:49:47.882Z,17.11
2022-10-06T11:52:14.728Z,17.21
2022-10-06T11:54:44.291Z,17.27
2022-10-06T11:57:25.069Z,17.41
2022-10-06T12:00:02.570Z,17.42
2022-10-06T12:02:39.682Z,17.46
2022-10-06T12:05:28.689Z,17.47
2022-10-06T12:07:56.317Z,17.51
2022-10-06T12:10:29.162Z,17.48
2022-10-06T12:14:12.328Z,17.51
2022-10-06T12:19:51.327Z,17.81
2022-10-06T12:22:43.990Z,17.98
2022-10-06T12:25:30.692Z,17.81
2022-10-06T12:28:37.644Z,17.95
2022-10-06T12:31:25.466Z,18.09
2022-10-06T12:33:52.668Z,18.16
2022-10-06T12:36:23.714Z,18.15
2022-10-06T12:39:05.156Z,18.09
2022-10-06T12:41:58.713Z,18.13
2022-10-06T12:44:38.437Z,17.93
2022-10-06T12:47:14.597Z,17.63
2022-10-06T12:49:57.257Z,17.22
2022-10-06T12:52:45.341Z,17.12
2022-10-06T12:55:32.965Z,17.07
2022-10-06T12:57:59.793Z,16.96
2022-10-06T13:00:40.353Z,17.25
2022-10-06T13:03:13.762Z,17.63
2022-10-06T13:05:40.667Z,17.80
2022-10-06T13:08:25.267Z,17.93
2022-10-06T13:11:10.862Z,18.00
2022-10-06T13:13:45.939Z,17.98
2022-10-06T13:16:14.837Z,17.91
2022-10-06T13:18:42.156Z,17.89
2022-10-06T13:21:16.239Z,18.02
2022-10-06T13:23:45.699Z,18.06
2022-10-06T13:26:18.418Z,17.90
2022-10-06T13:28:51.686Z,17.90
2022-10-06T13:31:24.252Z,17.89
2022-10-06T13:33:58.623Z,17.89
2022-10-06T13:36:27.874Z,17.87
2022-10-06T13:38:54.990Z,17.87
2022-10-06T13:41:32.885Z,17.91
2022-10-06T13:44:05.003Z,17.92
2022-10-06T13:46:42.466Z,18.01
2022-10-06T13:49:12.036Z,18.08
2022-10-06T13:51:38.958Z,18.11
2022-10-06T13:54:41.235Z,18.04
2022-10-06T13:57:48.067Z,17.99
2022-10-06T14:00:15.181Z,18.01
2022-10-06T14:02:45.190Z,17.96
2022-10-06T14:05:31.625Z,17.90
2022-10-06T14:08:11.205Z,17.88
2022-10-06T14:10:40.659Z,17.79
2022-10-06T14:13:16.066Z,17.67
2022-10-06T14:15:50.744Z,17.67
2022-10-06T14:21:32.001Z,17.54
2022-10-06T14:24:03.626Z,17.54
2022-10-06T14:26:37.833Z,17.50
2022-10-06T14:29:05.115Z,17.43
2022-10-06T14:31:34.168Z,17.44
2022-10-06T14:34:02.151Z,17.38
2022-10-06T14:36:35.832Z,17.28
2022-10-06T14:39:05.504Z,17.29
2022-10-06T14:41:32.588Z,17.19
2022-10-06T14:44:20.811Z,17.09
2022-10-06T14:46:48.846Z,17.01
2022-10-06T14:49:16.108Z,16.91
2022-10-06T14:51:44.546Z,16.85
2022-10-06T14:54:12.516Z,16.88
2022-10-06T14:56:40.555Z,16.85
2022-10-06T14:59:09.964Z,16.76
2022-10-06T15:01:39.974Z,16.59
2022-10-06T15:04:13.066Z,16.54
2022-10-06T15:06:59.981Z,16.51
2022-10-06T15:09:30.642Z,16.47
2022-10-06T15:11:58.490Z,16.31
2022-10-06T15:14:25.694Z,16.25
2022-10-06T15:16:52.681Z,16.17
2022-10-06T15:19:19.718Z,16.07
2022-10-06T15:21:46.730Z,15.95
2022-10-06T15:24:16.539Z,15.87
2022-10-06T15:27:02.958Z,15.78
2022-10-06T15:29:30.031Z,15.70
2022-10-06T15:31:58.790Z,15.56
2022-10-06T15:34:28.431Z,15.45
2022-10-06T15:36:56.705Z,15.32
2022-10-06T15:39:28.711Z,15.22
2022-10-06T15:41:56.244Z,15.13
2022-10-06T15:44:23.602Z,15.04
2022-10-06T15:46:52.919Z,14.97
2022-10-06T15:49:22.499Z,14.89
2022-10-06T15:51:59.491Z,14.83
2022-10-06T15:54:32.486Z,14.76
2022-10-06T15:57:01.636Z,14.71
2022-10-06T15:59:32.704Z,14.62
2022-10-06T16:02:07.253Z,14.60
2022-10-06T16:04:39.311Z,14.52
2022-10-06T16:07:14.634Z,14.47
2022-10-06T16:09:46.200Z,14.43
2022-10-06T16:12:18.619Z,14.37
2022-10-06T16:14:46.033Z,14.32
2022-10-06T16:17:13.816Z,14.27
2022-10-06T16:19:41.457Z,14.21
2022-10-06T16:22:11.597Z,14.13
2022-10-06T16:24:38.679Z,14.09
2022-10-06T16:27:05.780Z,14.02
2022-10-06T16:29:32.757Z,13.95
2022-10-06T16:31:59.661Z,13.87
2022-10-06T16:34:26.599Z,13.82
2022-10-06T16:36:53.601Z,13.76
2022-10-06T16:39:22.569Z,13.67
2022-10-06T16:41:50.514Z,13.61
2022-10-06T16:44:18.087Z,13.52
2022-10-06T16:46:45.438Z,13.45
2022-10-06T16:49:12.886Z,13.36
2022-10-06T16:51:42.400Z,13.30
2022-10-06T16:54:11.338Z,13.19
2022-10-06T16:56:44.063Z,13.08
2022-10-06T16:59:21.992Z,12.99
2022-10-06T17:01:50.284Z,12.92
2022-10-06T17:04:19.633Z,12.83
2022-10-06T17:06:51.969Z,12.71
2022-10-06T17:09:20.767Z,12.60
2022-10-06T17:11:50.535Z,12.53
2022-10-06T17:14:18.732Z,12.43
2022-10-06T17:16:46.972Z,12.33
2022-10-06T17:19:15.846Z,12.28
2022-10-06T17:21:46.668Z,12.19
2022-10-06T17:24:14.806Z,12.08
2022-10-06T17:26:43.731Z,12.02
2022-10-06T17:29:18.981Z,11.92
2022-10-06T17:31:47.403Z,11.82
2022-10-06T17:34:20.362Z,11.75
2022-10-06T17:36:49.567Z,11.68
2022-10-06T17:39:18.348Z,11.63
2022-10-06T17:41:46.697Z,11.54
2022-10-06T17:44:27.618Z,11.49
2022-10-06T17:46:59.392Z,11.43
2022-10-06T17:49:27.311Z,11.37
2022-10-06T17:51:55.284Z,11.29
2022-10-06T17:54:24.945Z,11.23
2022-10-06T17:56:54.969Z,11.16
2022-10-06T17:59:24.709Z,11.13
2022-10-06T18:01:52.289Z,11.09
2022-10-06T18:04:19.869Z,11.02
2022-10-06T18:06:48.164Z,10.99
2022-10-06T18:09:16.145Z,10.93
2022-10-06T18:11:47.941Z,10.86
2022-10-06T18:14:16.326Z,10.79
2022-10-06T18:16:53.428Z,10.73
2022-10-06T18:19:26.567Z,10.68
2022-10-06T18:21:56.609Z,10.62
2022-10-06T18:24:25.970Z,10.55
2022-10-06T18:26:55.017Z,10.51
2022-10-06T18:29:24.858Z,10.48
2022-10-06T18:31:53.644Z,10.45
2022-10-06T18:37:07.827Z,10.37
2022-10-06T18:39:35.093Z,10.36
2022-10-06T18:42:05.389Z,10.33
2022-10-06T18:44:50.641Z,10.26
2022-10-06T18:47:36.113Z,10.18
2022-10-06T18:50:03.108Z,10.10
2022-10-06T18:52:29.902Z,10.06
2022-10-06T18:54:56.650Z,9.99
2022-10-06T18:57:27.622Z,9.95
2022-10-06T18:59:55.346Z,9.90
2022-10-06T19:02:22.306Z,9.88
2022-10-06T19:04:49.334Z,9.87
2022-10-06T19:07:16.132Z,9.84
2022-10-06T19:09:46.545Z,9.81
2022-10-06T19:12:14.466Z,9.79
2022-10-06T19:14:47.898Z,9.75
2022-10-06T19:17:16.152Z,9.70
2022-10-06T19:19:46.243Z,9.66
2022-10-06T19:22:14.531Z,9.57
2022-10-06T19:24:43.460Z,9.51
2022-10-06T19:27:17.003Z,9.47
2022-10-06T19:29:50.792Z,9.39
2022-10-06T19:32:21.592Z,9.34
2022-10-06T19:34:48.645Z,9.33
2022-10-06T19:37:16.352Z,9.31
2022-10-06T19:39:46.573Z,9.29
2022-10-06T19:42:34.472Z,9.28
2022-10-06T19:45:02.139Z,9.26
2022-10-06T19:47:29.842Z,9.18
2022-10-06T19:50:02.020Z,9.12
2022-10-06T19:52:31.425Z,9.05
2022-10-06T19:54:58.582Z,9.03
2022-10-06T19:57:29.372Z,9.03
2022-10-06T19:59:56.406Z,9.00
2022-10-06T20:02:23.618Z,8.98
2022-10-06T20:04:50.770Z,8.93
2022-10-06T20:07:21.753Z,8.88
2022-10-06T20:09:48.856Z,8.84
2022-10-06T20:12:18.756Z,8.78
2022-10-06T20:14:50.041Z,8.75
2022-10-06T20:17:17.651Z,8.72
2022-10-06T20:19:45.469Z,8.70
2022-10-06T20:22:12.282Z,8.68
2022-10-06T20:24:39.003Z,8.65
2022-10-06T20:27:05.778Z,8.63
2022-10-06T20:29:32.884Z,8.57
2022-10-06T20:31:59.720Z,8.54
2022-10-06T20:34:32.964Z,8.50
2022-10-06T20:37:05.154Z,8.47
2022-10-06T20:39:52.659Z,8.47
2022-10-06T20:42:21.015Z,8.45
2022-10-06T20:44:48.252Z,8.44
2022-10-06T20:47:16.758Z,8.42
2022-10-06T20:49:44.051Z,8.38
2022-10-06T20:52:14.429Z,8.36
2022-10-06T20:54:41.743Z,8.35
2022-10-06T20:57:09.752Z,8.33
2022-10-06T20:59:37.720Z,8.33
2022-10-06T21:02:06.087Z,8.33
2022-10-06T21:04:34.392Z,8.32
2022-10-06T21:07:04.027Z,8.29
2022-10-06T21:09:31.117Z,8.26
2022-10-06T21:11:58.133Z,8.23
2022-10-06T21:14:25.032Z,8.19
2022-10-06T21:16:52.304Z,8.16
2022-10-06T21:19:19.654Z,8.13
2022-10-06T21:21:52.320Z,8.09
2022-10-06T21:24:20.403Z,8.06
2022-10-06T21:26:47.652Z,8.03
2022-10-06T21:29:15.735Z,8.02
2022-10-06T21:31:43.414Z,7.99
2022-10-06T21:34:10.650Z,7.99
2022-10-06T21:36:37.925Z,7.99
2022-10-06T21:39:05.972Z,7.97
2022-10-06T21:41:41.721Z,7.97
2022-10-06T21:44:13.619Z,7.98
2022-10-06T21:46:48.772Z,7.97
2022-10-06T21:49:21.193Z,7.96
2022-10-06T21:51:51.191Z,7.95
2022-10-06T21:54:18.969Z,7.93
2022-10-06T21:56:45.872Z,7.91
2022-10-06T21:59:12.862Z,7.90
2022-10-06T22:01:42.833Z,7.87
2022-10-06T22:04:10.248Z,7.85
2022-10-06T22:06:37.621Z,7.84
2022-10-06T22:09:07.460Z,7.83
2022-10-06T22:11:36.811Z,7.81
2022-10-06T22:14:08.565Z,7.78
2022-10-06T22:16:36.649Z,7.77
2022-10-06T22:19:06.188Z,7.75
2022-10-06T22:21:36.076Z,7.76
2022-10-06T22:24:07.922Z,7.76
2022-10-06T22:26:37.602Z,7.75
2022-10-06T22:29:06.707Z,7.76
2022-10-06T22:31:34.445Z,7.76
2022-10-06T22:34:04.862Z,7.76
2022-10-06T22:36:33.735Z,7.75
2022-10-06T22:39:00.870Z,7.75
2022-10-06T22:41:28.209Z,7.74
2022-10-06T22:43:59.683Z,7.72
2022-10-06T22:46:31.913Z,7.70
2022-10-06T22:48:59.207Z,7.69
2022-10-06T22:51:26.090Z,7.68
2022-10-06T22:53:58.030Z,7.68
2022-10-06T22:56:31.520Z,7.66
2022-10-06T22:58:59.930Z,7.64
2022-10-06T23:01:28.016Z,7.63
2022-10-06T23:03:55.786Z,7.62
2022-10-06T23:06:23.071Z,7.61
2022-10-06T23:08:50.132Z,7.59
2022-10-06T23:11:19.655Z,7.56
2022-10-06T23:13:46.879Z,7.56
2022-10-06T23:16:15.428Z,7.55
2022-10-06T23:18:44.121Z,7.53
2022-10-06T23:21:18.962Z,7.55
2022-10-06T23:23:46.263Z,7.52
2022-10-06T23:26:15.087Z,7.51
2022-10-06T23:28:42.748Z,7.48
2022-10-06T23:31:11.258Z,7.48
2022-10-06T23:33:38.630Z,7.46
2022-10-06T23:36:08.342Z,7.43
2022-10-06T23:38:36.629Z,7.42
2022-10-06T23:41:04.612Z,7.40
2022-10-06T23:43:31.592Z,7.40
2022-10-06T23:45:58.406Z,7.40
2022-10-06T23:48:25.766Z,7.39
2022-10-06T23:51:10.129Z,7.38
2022-10-06T23:53:37.340Z,7.39
2022-10-06T23:56:05.278Z,7.38
2022-10-06T23:58:32.129Z,7.37
